Time;durP1;ratioP1;P1;durP2;ratioP2;P2;SDS_P1;SDS_P2;PMS_P1;PMS_P2;Temp;Humidity;BMP_temperature;BMP_pressure;BME280_temperature;BME280_humidity;BME280_pressure;Samples;Min_cycle;Max_cycle;Signal;HPM_P1;HPM_P2
2021/06/25 00:01:39;;;;;;;8.30;5.45;;;16.90;99.90;;;;;;5051819;28;20036;-69
2021/06/25 00:04:07;;;;;;;7.43;5.40;;;16.90;99.90;;;;;;5051858;28;20041;-69
2021/06/25 00:06:34;;;;;;;6.93;4.38;;;17.00;99.90;;;;;;5051849;28;20471;-69
2021/06/25 00:09:02;;;;;;;10.40;4.90;;;17.00;99.90;;;;;;5051060;28;20079;-69
2021/06/25 00:11:29;;;;;;;8.50;4.60;;;17.00;99.90;;;;;;5048304;28;20106;-68
2021/06/25 00:13:57;;;;;;;6.15;4.00;;;17.00;99.90;;;;;;5051623;28;20556;-69
2021/06/25 00:16:25;;;;;;;9.68;5.75;;;17.00;99.90;;;;;;5051339;28;20045;-69
2021/06/25 00:18:55;;;;;;;6.50;4.50;;;17.00;99.90;;;;;;5043983;28;20049;-69
2021/06/25 00:21:22;;;;;;;7.35;4.95;;;17.00;99.90;;;;;;5045411;28;20186;-69
2021/06/25 00:23:50;;;;;;;8.07;5.65;;;17.00;99.90;;;;;;5051313;28;20372;-69
2021/06/25 00:26:17;;;;;;;7.15;4.90;;;17.00;99.90;;;;;;5050561;28;20053;-69
2021/06/25 00:28:45;;;;;;;8.27;4.78;;;17.10;99.90;;;;;;5049859;28;20403;-69
2021/06/25 00:31:12;;;;;;;10.10;6.55;;;17.10;99.90;;;;;;5049737;28;20053;-69
2021/06/25 00:33:39;;;;;;;10.07;6.50;;;17.00;99.90;;;;;;5049737;28;20632;-69
2021/06/25 00:36:07;;;;;;;8.52;5.45;;;17.00;99.90;;;;;;5047802;28;20053;-69
2021/06/25 00:38:38;;;;;;;8.43;6.03;;;16.90;99.90;;;;;;5050908;28;20060;-69
2021/06/25 00:41:06;;;;;;;11.25;7.00;;;16.80;99.90;;;;;;5048990;28;20041;-69
2021/06/25 00:43:33;;;;;;;26.80;20.90;;;16.80;99.90;;;;;;5048500;28;20041;-69
2021/06/25 00:46:00;;;;;;;25.95;19.63;;;16.80;99.90;;;;;;5049920;28;20061;-69
2021/06/25 00:48:28;;;;;;;37.22;31.55;;;16.80;99.90;;;;;;5050807;28;20119;-69
2021/06/25 00:50:55;;;;;;;27.48;22.70;;;16.90;99.90;;;;;;5049638;28;20077;-69
2021/06/25 00:53:22;;;;;;;27.98;21.90;;;16.90;99.90;;;;;;5065742;28;20096;-69
2021/06/25 00:55:50;;;;;;;28.05;23.00;;;16.90;99.90;;;;;;5049165;28;20053;-69
2021/06/25 00:58:19;;;;;;;29.90;24.83;;;17.00;99.90;;;;;;5029302;28;20468;-69
2021/06/25 01:00:46;;;;;;;35.15;28.70;;;17.00;99.90;;;;;;5045297;28;20053;-69
2021/06/25 01:03:14;;;;;;;42.38;35.50;;;17.00;99.90;;;;;;5050606;28;20388;-69
2021/06/25 01:05:43;;;;;;;37.00;28.33;;;17.00;99.90;;;;;;5042804;28;20046;-69
2021/06/25 01:08:11;;;;;;;33.45;26.40;;;17.00;99.90;;;;;;5047951;28;20049;-69
2021/06/25 01:10:40;;;;;;;44.20;34.35;;;17.00;99.90;;;;;;5047488;28;20041;-69
2021/06/25 01:13:08;;;;;;;40.13;29.38;;;17.00;99.90;;;;;;5048602;28;20075;-69
2021/06/25 01:15:36;;;;;;;37.33;29.60;;;17.00;99.90;;;;;;5047048;28;20063;-69
2021/06/25 01:18:04;;;;;;;35.17;26.20;;;17.10;99.90;;;;;;5049725;28;20053;-69
2021/06/25 01:20:35;;;;;;;27.27;19.23;;;17.10;99.90;;;;;;5048705;28;20098;-69
2021/06/25 01:23:03;;;;;;;21.95;13.85;;;17.10;99.90;;;;;;5065768;28;20085;-69
2021/06/25 01:25:35;;;;;;;18.77;13.75;;;17.10;99.90;;;;;;5050650;28;20106;-69
2021/06/25 01:28:11;;;;;;;19.45;13.57;;;17.10;99.90;;;;;;5050332;28;20511;-69
2021/06/25 01:30:42;;;;;;;12.48;9.63;;;17.00;99.90;;;;;;5046381;28;20552;-69
2021/06/25 01:33:12;;;;;;;15.90;9.23;;;17.00;99.90;;;;;;5044830;28;20059;-69
2021/06/25 01:35:56;;;;;;;17.63;10.02;;;17.00;99.90;;;;;;5050120;28;20379;-69
2021/06/25 01:38:24;;;;;;;15.93;9.73;;;17.00;99.90;;;;;;5049430;28;20053;-69
2021/06/25 01:40:52;;;;;;;11.90;7.32;;;17.00;99.90;;;;;;5048636;28;20057;-69
2021/06/25 01:43:21;;;;;;;10.10;6.63;;;17.00;99.90;;;;;;5046072;28;20569;-69
2021/06/25 01:45:48;;;;;;;10.68;6.55;;;16.90;99.90;;;;;;5048573;28;20412;-69
2021/06/25 01:48:16;;;;;;;8.25;6.35;;;16.90;99.90;;;;;;5059622;28;20549;-68
2021/06/25 01:50:44;;;;;;;9.50;6.80;;;16.90;99.90;;;;;;5050341;28;20041;-68
2021/06/25 01:53:14;;;;;;;9.80;6.35;;;16.90;99.90;;;;;;5049716;28;20055;-69
2021/06/25 01:55:42;;;;;;;10.35;5.75;;;16.90;99.90;;;;;;5037641;28;20606;-69
2021/06/25 01:58:30;;;;;;;9.13;6.00;;;16.90;99.90;;;;;;5047442;28;20572;-69
2021/06/25 02:01:08;;;;;;;8.32;5.95;;;16.90;99.90;;;;;;5042550;28;20419;-69
2021/06/25 02:03:39;;;;;;;9.18;5.78;;;16.90;99.90;;;;;;5045236;28;20121;-69
2021/06/25 02:06:07;;;;;;;8.85;5.78;;;16.80;99.90;;;;;;5062855;28;20053;-69
2021/06/25 02:08:38;;;;;;;7.82;6.05;;;16.90;99.90;;;;;;5048562;28;20430;-69
2021/06/25 02:11:08;;;;;;;9.05;6.07;;;16.90;99.90;;;;;;5049150;28;20055;-69
2021/06/25 02:13:35;;;;;;;9.07;6.60;;;16.90;99.90;;;;;;5048777;28;20075;-69
2021/06/25 02:16:03;;;;;;;12.40;6.50;;;16.90;99.90;;;;;;5039334;28;20072;-69
2021/06/25 02:18:31;;;;;;;9.45;6.05;;;16.90;99.90;;;;;;5049238;28;20132;-69
2021/06/25 02:20:59;;;;;;;6.57;5.20;;;16.90;99.90;;;;;;5051688;28;20045;-69
2021/06/25 02:23:27;;;;;;;10.60;6.93;;;17.00;99.90;;;;;;5052613;28;20041;-69
2021/06/25 02:25:54;;;;;;;10.27;6.65;;;17.00;99.90;;;;;;5051108;28;20491;-69
2021/06/25 02:28:22;;;;;;;8.73;6.10;;;17.00;99.90;;;;;;5052313;28;20491;-69
2021/06/25 02:30:53;;;;;;;9.57;6.90;;;17.00;99.90;;;;;;5052734;28;20439;-69
2021/06/25 02:33:22;;;;;;;9.50;6.35;;;17.10;99.90;;;;;;5052233;28;20135;-68
2021/06/25 02:35:49;;;;;;;13.63;7.68;;;17.00;99.90;;;;;;5053737;28;20052;-69
2021/06/25 02:38:17;;;;;;;11.98;7.53;;;17.10;99.90;;;;;;5053121;28;20053;-69
2021/06/25 02:40:44;;;;;;;9.85;7.28;;;17.00;99.90;;;;;;5051600;28;20390;-69
2021/06/25 02:43:11;;;;;;;12.52;8.23;;;17.00;99.90;;;;;;5045810;28;20072;-69
2021/06/25 02:45:39;;;;;;;10.35;7.88;;;17.10;99.90;;;;;;5053579;28;20048;-69
2021/06/25 02:48:06;;;;;;;10.45;8.40;;;17.10;99.90;;;;;;5050235;28;20037;-69
2021/06/25 02:50:34;;;;;;;14.00;9.10;;;17.10;99.90;;;;;;5053184;28;20095;-69
2021/06/25 02:53:01;;;;;;;13.38;9.05;;;17.10;99.90;;;;;;5052315;28;20573;-69
2021/06/25 02:55:28;;;;;;;12.35;9.35;;;17.10;99.90;;;;;;5049583;28;20057;-68
2021/06/25 02:57:56;;;;;;;13.15;10.15;;;17.10;99.90;;;;;;5034088;28;20103;-68
2021/06/25 03:00:23;;;;;;;12.57;8.90;;;17.10;99.90;;;;;;5060369;28;20614;-69
2021/06/25 03:02:50;;;;;;;11.95;8.68;;;17.10;99.90;;;;;;5046555;28;20103;-69
2021/06/25 03:05:18;;;;;;;12.50;9.27;;;17.10;99.90;;;;;;5052477;28;20091;-68
2021/06/25 03:07:46;;;;;;;12.57;10.82;;;17.20;99.90;;;;;;5035127;28;20068;-68
2021/06/25 03:10:13;;;;;;;12.88;9.43;;;17.10;99.90;;;;;;5050446;28;20045;-68
2021/06/25 03:12:40;;;;;;;16.05;9.18;;;17.20;99.90;;;;;;5047907;28;20060;-68
2021/06/25 03:15:09;;;;;;;15.77;10.70;;;17.10;99.90;;;;;;5051091;28;20164;-69
2021/06/25 03:17:36;;;;;;;13.50;10.27;;;17.10;99.90;;;;;;5050265;28;20045;-68
2021/06/25 03:20:05;;;;;;;14.77;10.32;;;17.10;99.90;;;;;;5051263;28;20072;-68
2021/06/25 03:22:32;;;;;;;13.38;10.30;;;17.10;99.90;;;;;;5066761;28;20496;-68
2021/06/25 03:25:00;;;;;;;13.15;10.45;;;17.10;99.90;;;;;;5050631;28;20107;-72
2021/06/25 03:27:27;;;;;;;14.07;11.32;;;17.10;99.90;;;;;;5050317;28;20077;-68
2021/06/25 03:29:54;;;;;;;16.25;10.98;;;17.10;99.90;;;;;;5045818;28;20049;-68
2021/06/25 03:32:22;;;;;;;12.65;10.32;;;17.00;99.90;;;;;;5051220;28;20143;-68
2021/06/25 03:34:50;;;;;;;14.50;10.88;;;17.00;99.90;;;;;;5067316;28;20532;-69
2021/06/25 03:37:17;;;;;;;12.95;10.63;;;17.10;99.90;;;;;;5066768;28;20045;-69
2021/06/25 03:39:44;;;;;;;15.25;11.20;;;17.00;99.90;;;;;;5049861;28;20521;-69
2021/06/25 03:42:11;;;;;;;15.10;11.00;;;17.00;99.90;;;;;;5048679;28;20522;-69
2021/06/25 03:44:39;;;;;;;14.80;11.23;;;17.00;99.90;;;;;;5049357;28;20083;-68
2021/06/25 03:47:07;;;;;;;15.00;12.02;;;17.10;99.90;;;;;;5048529;28;20435;-68
2021/06/25 03:49:34;;;;;;;15.43;11.15;;;17.00;99.90;;;;;;5051195;28;20041;-69
2021/06/25 03:52:02;;;;;;;18.15;12.10;;;17.10;99.90;;;;;;5050507;28;20346;-69
2021/06/25 03:54:29;;;;;;;15.25;12.25;;;17.00;99.90;;;;;;5034468;28;20144;-69
2021/06/25 03:56:56;;;;;;;17.10;13.25;;;17.10;99.90;;;;;;5047490;28;20726;-69
2021/06/25 03:59:24;;;;;;;16.13;12.88;;;17.10;99.90;;;;;;5050274;28;20178;-69
2021/06/25 04:01:52;;;;;;;16.13;13.02;;;17.00;99.90;;;;;;5060133;28;20061;-69
2021/06/25 04:04:20;;;;;;;18.90;12.18;;;17.00;99.90;;;;;;5050176;28;20041;-69
2021/06/25 04:06:47;;;;;;;17.20;12.55;;;17.10;99.90;;;;;;5050026;28;20049;-69
2021/06/25 04:09:14;;;;;;;16.45;11.27;;;17.10;99.90;;;;;;5045320;28;20037;-69
2021/06/25 04:11:43;;;;;;;18.17;10.02;;;17.10;99.90;;;;;;5063300;28;20057;-70
2021/06/25 04:14:10;;;;;;;15.00;10.25;;;17.20;99.90;;;;;;5048489;28;20526;-70
2021/06/25 04:16:38;;;;;;;12.45;9.55;;;17.10;99.90;;;;;;5033172;28;20049;-69
2021/06/25 04:19:05;;;;;;;15.63;9.07;;;17.00;99.90;;;;;;5050934;28;20064;-70
2021/06/25 04:21:32;;;;;;;12.63;8.98;;;16.90;99.90;;;;;;5050930;28;20515;-70
2021/06/25 04:24:00;;;;;;;12.90;8.52;;;16.90;99.90;;;;;;5050368;28;20119;-70
2021/06/25 04:26:27;;;;;;;15.82;9.05;;;16.90;99.90;;;;;;5065857;28;20044;-70
2021/06/25 04:28:54;;;;;;;12.02;7.50;;;16.90;99.90;;;;;;5062480;28;20041;-69
2021/06/25 04:31:22;;;;;;;9.90;7.35;;;16.80;99.90;;;;;;5047322;28;20510;-69
2021/06/25 04:33:49;;;;;;;8.57;5.55;;;16.80;99.90;;;;;;5046558;28;20056;-69
2021/06/25 04:36:17;;;;;;;7.38;4.40;;;16.80;99.90;;;;;;5040048;28;20053;-69
2021/06/25 04:38:44;;;;;;;9.52;4.47;;;16.80;99.90;;;;;;5039172;28;20049;-69
2021/06/25 04:41:12;;;;;;;6.25;4.28;;;16.80;99.90;;;;;;5046939;28;20053;-70
2021/06/25 04:43:41;;;;;;;7.75;4.15;;;16.80;99.90;;;;;;5048776;28;20132;-69
2021/06/25 04:46:08;;;;;;;7.32;5.00;;;16.80;99.90;;;;;;5042014;28;20045;-70
2021/06/25 04:48:36;;;;;;;7.93;5.72;;;17.00;99.90;;;;;;5047260;28;20103;-70
2021/06/25 04:51:06;;;;;;;8.30;5.22;;;17.00;99.90;;;;;;5048474;28;20049;-69
2021/06/25 04:53:33;;;;;;;9.38;5.47;;;16.90;99.90;;;;;;5039962;28;20057;-69
2021/06/25 04:56:00;;;;;;;7.25;5.18;;;16.90;99.90;;;;;;5046352;28;20049;-70
2021/06/25 04:58:28;;;;;;;6.85;5.10;;;16.90;99.90;;;;;;5042764;28;20144;-69
2021/06/25 05:00:59;;;;;;;10.50;6.00;;;16.90;99.90;;;;;;5046424;28;20044;-69
2021/06/25 05:03:27;;;;;;;8.68;5.45;;;16.90;99.90;;;;;;5048962;28;20048;-69
2021/06/25 05:05:54;;;;;;;6.82;5.13;;;17.00;99.90;;;;;;5033087;28;20057;-70
2021/06/25 05:08:22;;;;;;;8.00;5.35;;;17.00;99.90;;;;;;5049888;28;20073;-69
2021/06/25 05:10:49;;;;;;;7.78;4.88;;;17.10;99.90;;;;;;5050548;28;20110;-70
2021/06/25 05:13:17;;;;;;;7.32;4.80;;;17.10;99.90;;;;;;5051174;28;20049;-70
2021/06/25 05:15:45;;;;;;;6.90;5.03;;;17.20;99.90;;;;;;5046209;28;20048;-70
2021/06/25 05:18:21;;;;;;;7.75;5.25;;;17.20;99.90;;;;;;5064808;28;20087;-70
2021/06/25 05:21:08;;;;;;;9.05;5.22;;;17.30;99.90;;;;;;5051132;28;20037;-70
2021/06/25 05:23:36;;;;;;;10.55;4.55;;;17.40;99.90;;;;;;5050200;28;20127;-70
2021/06/25 05:26:03;;;;;;;8.93;5.07;;;17.50;99.90;;;;;;5049616;28;20072;-68
2021/06/25 05:28:31;;;;;;;8.68;5.43;;;17.60;99.90;;;;;;5048935;28;20048;-65
2021/06/25 05:31:03;;;;;;;8.15;4.78;;;17.70;99.90;;;;;;5049952;28;20127;-65
2021/06/25 05:33:30;;;;;;;7.68;5.15;;;17.70;99.90;;;;;;5049583;28;20072;-65
2021/06/25 05:35:58;;;;;;;9.13;4.85;;;17.70;99.90;;;;;;5049683;28;20088;-65
2021/06/25 05:38:25;;;;;;;10.95;5.70;;;17.70;99.90;;;;;;5048686;28;20384;-65
2021/06/25 05:40:52;;;;;;;8.80;5.05;;;17.70;99.90;;;;;;5049163;28;20422;-66
2021/06/25 05:43:20;;;;;;;10.48;5.57;;;17.80;99.90;;;;;;5047438;28;20057;-66
2021/06/25 05:45:47;;;;;;;9.45;5.03;;;17.90;99.90;;;;;;5041613;28;20050;-66
2021/06/25 05:48:16;;;;;;;9.68;5.30;;;18.10;99.90;;;;;;5044164;28;20067;-65
2021/06/25 05:50:43;;;;;;;8.75;5.03;;;18.20;99.90;;;;;;5041468;28;20052;-65
2021/06/25 05:53:11;;;;;;;9.38;4.70;;;18.20;99.90;;;;;;5042926;28;20565;-65
2021/06/25 05:55:42;;;;;;;7.57;5.32;;;18.30;99.90;;;;;;5052304;28;20052;-65
2021/06/25 05:58:10;;;;;;;9.50;5.37;;;18.40;99.90;;;;;;5055100;28;20056;-65
2021/06/25 06:00:38;;;;;;;8.82;5.25;;;18.30;99.90;;;;;;5054733;28;20041;-65
2021/06/25 06:03:06;;;;;;;9.10;5.53;;;18.20;99.90;;;;;;5054360;28;20049;-65
2021/06/25 06:05:35;;;;;;;9.00;4.70;;;18.00;99.90;;;;;;5050084;28;20071;-65
2021/06/25 06:08:04;;;;;;;8.95;5.10;;;18.20;99.90;;;;;;5054693;28;20045;-65
2021/06/25 06:10:33;;;;;;;7.47;5.57;;;18.30;99.90;;;;;;5052897;28;20049;-65
2021/06/25 06:13:02;;;;;;;6.65;5.18;;;18.50;99.90;;;;;;5047649;28;20045;-65
2021/06/25 06:15:30;;;;;;;9.07;5.03;;;18.60;99.90;;;;;;5054928;28;20139;-65
2021/06/25 06:17:59;;;;;;;7.00;4.88;;;18.70;99.90;;;;;;5054467;28;20049;-65
2021/06/25 06:20:28;;;;;;;10.23;5.72;;;18.70;99.90;;;;;;5055363;28;20090;-65
2021/06/25 06:31:19;;;;;;;6.82;4.80;;;19.40;99.90;;;;;;5052674;28;20048;-65
2021/06/25 06:33:54;;;;;;;7.15;4.93;;;19.50;99.90;;;;;;5045911;28;20052;-65
2021/06/25 06:36:35;;;;;;;5.90;4.50;;;19.40;99.90;;;;;;5052649;28;20495;-65
2021/06/25 06:39:04;;;;;;;7.25;4.75;;;19.40;99.90;;;;;;5052695;28;20087;-66
2021/06/25 06:41:33;;;;;;;9.40;4.60;;;19.30;99.90;;;;;;5051794;28;20060;-65
2021/06/25 06:44:01;;;;;;;6.75;4.82;;;19.10;99.90;;;;;;5039345;28;20103;-65
2021/06/25 06:46:30;;;;;;;7.18;4.88;;;19.00;99.90;;;;;;5052329;28;20049;-65
2021/06/25 06:48:58;;;;;;;8.95;4.78;;;19.00;99.90;;;;;;5052329;28;20080;-65
2021/06/25 06:51:26;;;;;;;6.50;5.35;;;19.10;99.90;;;;;;5049820;28;20036;-65
2021/06/25 06:53:57;;;;;;;9.38;5.20;;;18.90;99.90;;;;;;5040160;28;20052;-65
2021/06/25 06:56:25;;;;;;;6.68;4.70;;;18.90;99.90;;;;;;5053158;28;20536;-65
2021/06/25 06:58:53;;;;;;;7.90;5.50;;;19.00;99.90;;;;;;5051521;28;20041;-65
2021/06/25 07:01:22;;;;;;;11.13;5.45;;;19.20;99.90;;;;;;5050005;28;20053;-65
2021/06/25 07:04:10;;;;;;;7.50;5.72;;;19.00;99.90;;;;;;5050701;28;20395;-65
2021/06/25 07:06:37;;;;;;;9.15;5.75;;;19.00;99.90;;;;;;5046618;28;20381;-66
2021/06/25 07:09:05;;;;;;;7.75;5.10;;;19.00;99.90;;;;;;5051207;28;20049;-67
2021/06/25 07:11:32;;;;;;;9.30;5.93;;;18.90;99.90;;;;;;5049537;28;20045;-66
2021/06/25 07:14:00;;;;;;;7.97;6.22;;;18.70;99.90;;;;;;5050801;28;20059;-66
2021/06/25 07:16:27;;;;;;;8.68;5.80;;;18.60;99.90;;;;;;5051420;28;20095;-66
2021/06/25 07:18:55;;;;;;;8.02;5.82;;;18.50;99.90;;;;;;5052410;28;20511;-66
2021/06/25 07:21:22;;;;;;;8.35;6.13;;;18.50;99.90;;;;;;5049645;28;20484;-66
2021/06/25 07:23:50;;;;;;;10.35;5.53;;;18.50;99.90;;;;;;5051929;28;20075;-65
2021/06/25 07:26:18;;;;;;;10.32;6.05;;;18.70;99.90;;;;;;5043822;28;20057;-65
2021/06/25 07:28:45;;;;;;;9.55;5.03;;;18.70;99.90;;;;;;5065904;28;20112;-65
2021/06/25 07:31:13;;;;;;;6.47;4.75;;;18.90;99.90;;;;;;5047620;28;20079;-65
2021/06/25 07:33:40;;;;;;;6.20;4.45;;;18.90;99.90;;;;;;5046960;28;20388;-65
2021/06/25 07:36:08;;;;;;;14.10;7.45;;;19.10;99.90;;;;;;5042586;28;20136;-65
2021/06/25 07:38:35;;;;;;;5.97;3.50;;;19.00;99.90;;;;;;5044208;28;20057;-65
2021/06/25 07:41:03;;;;;;;5.18;2.88;;;19.00;99.90;;;;;;5048430;28;20049;-65
2021/06/25 07:43:30;;;;;;;4.78;3.15;;;18.90;99.90;;;;;;5050447;28;20055;-65
2021/06/25 07:45:57;;;;;;;4.38;2.78;;;18.80;99.90;;;;;;5048776;28;20449;-65
2021/06/25 07:48:24;;;;;;;6.82;3.42;;;18.90;99.90;;;;;;5045857;28;20194;-65
2021/06/25 07:50:52;;;;;;;5.47;2.88;;;19.00;99.90;;;;;;5067184;28;20083;-65
2021/06/25 07:53:19;;;;;;;6.85;3.08;;;19.10;99.90;;;;;;5063686;28;20088;-65
2021/06/25 07:55:46;;;;;;;4.50;2.85;;;19.00;99.90;;;;;;5049389;28;20444;-65
2021/06/25 07:58:16;;;;;;;5.10;3.25;;;18.90;99.90;;;;;;5049346;28;20379;-65
2021/06/25 08:00:44;;;;;;;5.15;3.40;;;18.80;99.90;;;;;;5067476;28;20041;-65
2021/06/25 08:03:11;;;;;;;5.20;3.60;;;18.60;99.90;;;;;;5051193;28;20075;-64
2021/06/25 08:05:39;;;;;;;4.85;3.28;;;18.50;99.90;;;;;;5050237;28;20049;-65
2021/06/25 08:08:07;;;;;;;5.20;3.50;;;18.40;99.90;;;;;;5066201;28;20067;-65
2021/06/25 08:10:35;;;;;;;5.35;3.38;;;18.40;99.90;;;;;;5066791;28;20087;-65
2021/06/25 08:13:03;;;;;;;6.13;3.60;;;18.50;99.90;;;;;;5050321;28;20047;-65
2021/06/25 08:15:31;;;;;;;6.40;3.80;;;18.70;99.90;;;;;;5052485;28;20135;-65
2021/06/25 08:17:59;;;;;;;5.45;3.50;;;18.80;99.90;;;;;;5051454;28;20503;-65
2021/06/25 08:20:26;;;;;;;5.00;3.47;;;18.80;99.90;;;;;;5049267;28;20049;-65
2021/06/25 08:22:55;;;;;;;6.70;4.10;;;18.90;99.90;;;;;;5050862;28;20072;-65
2021/06/25 08:25:23;;;;;;;5.82;4.10;;;19.00;99.90;;;;;;5050998;28;20557;-65
2021/06/25 08:27:55;;;;;;;5.90;3.67;;;19.10;99.90;;;;;;5050242;28;20040;-65
2021/06/25 08:30:25;;;;;;;5.57;4.15;;;19.20;99.90;;;;;;5047922;28;20526;-65
2021/06/25 08:32:53;;;;;;;6.75;4.10;;;19.40;99.90;;;;;;5049507;28;20041;-65
2021/06/25 08:35:21;;;;;;;5.20;3.55;;;19.60;99.90;;;;;;5051135;28;20053;-65
2021/06/25 08:37:49;;;;;;;4.65;3.10;;;19.90;99.90;;;;;;5050967;28;20041;-65
2021/06/25 08:40:17;;;;;;;5.40;3.63;;;19.90;99.90;;;;;;5051638;28;20593;-65
2021/06/25 08:42:45;;;;;;;3.97;2.80;;;20.10;99.90;;;;;;5048408;28;20545;-65
2021/06/25 08:45:14;;;;;;;6.30;3.83;;;20.20;99.90;;;;;;5049262;28;20045;-66
2021/06/25 08:47:52;;;;;;;6.57;3.60;;;20.50;99.90;;;;;;5049464;28;20128;-66
2021/06/25 08:50:39;;;;;;;5.45;3.55;;;20.60;99.90;;;;;;5041892;28;20407;-67
2021/06/25 08:53:07;;;;;;;5.50;3.75;;;20.80;99.90;;;;;;5050540;28;20491;-66
2021/06/25 08:55:43;;;;;;;8.10;3.70;;;20.60;99.90;;;;;;5044799;28;20068;-66
2021/06/25 08:58:14;;;;;;;6.40;4.00;;;20.50;99.90;;;;;;5047645;28;20057;-66
2021/06/25 09:00:42;;;;;;;5.28;3.50;;;20.40;99.90;;;;;;5046698;28;20128;-66
2021/06/25 09:03:19;;;;;;;7.10;3.90;;;20.60;99.90;;;;;;5050189;28;20057;-66
2021/06/25 09:05:46;;;;;;;8.02;4.90;;;20.50;99.90;;;;;;5048224;28;20064;-66
2021/06/25 09:08:29;;;;;;;8.20;4.70;;;20.50;99.90;;;;;;5050421;28;20045;-67
2021/06/25 09:11:02;;;;;;;5.80;4.07;;;20.70;99.90;;;;;;5039951;28;20124;-67
2021/06/25 09:13:38;;;;;;;6.35;3.55;;;21.10;99.90;;;;;;5066128;28;20094;-66
2021/06/25 09:16:31;;;;;;;4.50;3.28;;;21.10;99.90;;;;;;5042565;28;20057;-66
2021/06/25 09:19:16;;;;;;;4.40;2.88;;;21.10;99.90;;;;;;5047152;28;20060;-66
2021/06/25 09:22:02;;;;;;;6.38;3.38;;;21.10;99.90;;;;;;5049938;28;20660;-66
2021/06/25 09:24:29;;;;;;;5.25;2.97;;;21.10;99.90;;;;;;5062016;28;20053;-67
2021/06/25 09:27:06;;;;;;;4.05;2.65;;;21.30;99.90;;;;;;5048314;28;20069;-67
2021/06/25 09:29:37;;;;;;;4.57;3.13;;;21.60;99.90;;;;;;5046940;28;20048;-66
2021/06/25 09:32:07;;;;;;;4.10;2.88;;;22.00;99.90;;;;;;5049798;28;20057;-67
2021/06/25 09:34:45;;;;;;;4.25;2.58;;;22.40;99.90;;;;;;5049021;28;20470;-66
2021/06/25 09:37:14;;;;;;;4.57;2.63;;;22.50;99.90;;;;;;5063254;28;20472;-66
2021/06/25 09:39:56;;;;;;;4.40;2.90;;;22.50;99.90;;;;;;5048474;28;20045;-66
2021/06/25 09:42:25;;;;;;;6.80;3.30;;;22.70;99.90;;;;;;5042760;28;20076;-66
2021/06/25 09:45:06;;;;;;;5.40;3.78;;;22.90;99.90;;;;;;5044648;28;20139;-67
2021/06/25 09:47:39;;;;;;;5.28;3.17;;;22.90;99.90;;;;;;5058542;28;20559;-67
2021/06/25 09:50:17;;;;;;;5.75;3.30;;;22.60;99.90;;;;;;5049387;28;20456;-68
2021/06/25 09:53:05;;;;;;;5.93;3.28;;;22.50;99.90;;;;;;5047720;28;20045;-65
2021/06/25 09:55:52;;;;;;;5.55;3.17;;;22.50;99.90;;;;;;5066088;28;20079;-67
2021/06/25 09:59:01;;;;;;;6.13;3.45;;;22.50;99.90;;;;;;5064987;28;20079;-67
2021/06/25 10:01:24;;;;;;;4.53;3.05;;;22.50;99.90;;;;;;5045712;28;20147;-67
2021/06/25 10:03:57;;;;;;;6.65;3.55;;;22.50;99.90;;;;;;5049368;28;20479;-67
2021/06/25 10:06:31;;;;;;;4.30;3.08;;;22.60;99.90;;;;;;5048954;28;20037;-67
2021/06/25 10:09:00;;;;;;;5.40;3.42;;;22.90;99.90;;;;;;5049932;28;20072;-67
2021/06/25 10:11:31;;;;;;;5.70;3.10;;;23.20;99.90;;;;;;5053505;28;20077;-65
2021/06/25 10:14:01;;;;;;;5.18;3.20;;;23.60;99.90;;;;;;5049493;28;20072;-67
2021/06/25 10:16:29;;;;;;;4.95;3.45;;;23.90;99.90;;;;;;5050186;28;20079;-65
2021/06/25 10:18:58;;;;;;;5.03;3.58;;;23.70;99.90;;;;;;5048943;28;20128;-66
2021/06/25 10:21:33;;;;;;;6.15;4.00;;;23.10;99.90;;;;;;5050181;28;20051;-67
2021/06/25 10:24:03;;;;;;;6.28;4.22;;;22.70;99.90;;;;;;5047371;28;20069;-66
2021/06/25 10:26:32;;;;;;;7.60;4.88;;;21.90;99.90;;;;;;5045752;28;20037;-66
2021/06/25 10:29:01;;;;;;;5.53;3.90;;;21.60;99.90;;;;;;5047807;28;20068;-66
2021/06/25 10:31:28;;;;;;;8.32;4.50;;;21.70;99.90;;;;;;5049284;28;20073;-66
2021/06/25 10:33:56;;;;;;;6.47;4.40;;;21.70;99.90;;;;;;5035627;28;20084;-66
2021/06/25 10:36:30;;;;;;;6.85;4.43;;;21.90;99.90;;;;;;5032988;28;20516;-66
2021/06/25 10:39:05;;;;;;;8.27;4.20;;;21.90;99.90;;;;;;5038781;28;20037;-66
2021/06/25 10:41:50;;;;;;;9.10;4.43;;;22.00;99.90;;;;;;5046931;28;20471;-66
2021/06/25 10:44:30;;;;;;;6.90;4.68;;;22.10;99.90;;;;;;5035703;28;20354;-66
2021/06/25 10:47:31;;;;;;;5.32;4.10;;;22.10;99.90;;;;;;5052833;28;20037;-66
2021/06/25 10:49:58;;;;;;;6.70;3.30;;;22.40;99.90;;;;;;5053371;28;20095;-67
2021/06/25 10:52:29;;;;;;;7.50;4.40;;;23.00;99.90;;;;;;5046541;28;20128;-67
2021/06/25 10:55:24;;;;;;;7.03;4.47;;;23.00;99.90;;;;;;5052037;28;20053;-66
2021/06/25 10:57:51;;;;;;;7.88;4.40;;;23.00;99.90;;;;;;5040131;28;20041;-66
2021/06/25 11:00:25;;;;;;;7.38;4.30;;;22.70;99.90;;;;;;5049054;28;20057;-66
2021/06/25 11:02:55;;;;;;;7.72;4.47;;;22.80;99.90;;;;;;5053620;28;20136;-67
2021/06/25 11:05:39;;;;;;;6.50;4.47;;;23.00;99.90;;;;;;5050902;28;20136;-68
2021/06/25 11:08:15;;;;;;;6.28;4.70;;;23.30;99.90;;;;;;5051111;28;20888;-67
2021/06/25 11:10:51;;;;;;;5.95;3.47;;;23.40;99.90;;;;;;5039857;28;20053;-68
2021/06/25 11:13:23;;;;;;;7.53;4.07;;;23.40;99.90;;;;;;5045087;28;20461;-68
2021/06/25 11:15:59;;;;;;;11.52;3.78;;;23.30;99.90;;;;;;5023311;28;20045;-66
2021/06/25 11:18:28;;;;;;;4.60;3.42;;;23.30;99.90;;;;;;5042493;28;20053;-67
2021/06/25 11:21:14;;;;;;;6.30;3.58;;;23.70;99.90;;;;;;5051742;28;20094;-67
2021/06/25 11:23:44;;;;;;;6.50;4.53;;;24.30;99.90;;;;;;5051516;28;20128;-67
2021/06/25 11:26:14;;;;;;;5.93;4.35;;;24.60;99.90;;;;;;5053101;28;20037;-66
2021/06/25 11:28:42;;;;;;;5.78;4.10;;;24.20;99.90;;;;;;5052195;28;20065;-66
2021/06/25 11:31:13;;;;;;;5.97;3.63;;;24.30;99.90;;;;;;5053094;28;20057;-67
2021/06/25 11:33:50;;;;;;;5.68;3.30;;;24.30;99.90;;;;;;5052055;28;20462;-67
2021/06/25 11:36:49;;;;;;;5.35;3.30;;;24.30;99.90;;;;;;5049281;28;20470;-67
2021/06/25 11:39:36;;;;;;;5.45;3.65;;;23.90;99.90;;;;;;5049356;28;20445;-66
2021/06/25 11:42:09;;;;;;;4.07;3.05;;;23.30;99.90;;;;;;5040957;28;20053;-67
2021/06/25 11:44:38;;;;;;;4.47;2.60;;;23.10;99.90;;;;;;5051675;28;20164;-67
2021/06/25 11:47:31;;;;;;;4.82;2.58;;;22.80;99.90;;;;;;5052450;28;20071;-66
2021/06/25 11:50:02;;;;;;;4.63;2.50;;;22.80;99.90;;;;;;5051305;28;20098;-67
2021/06/25 11:52:32;;;;;;;3.53;2.30;;;23.00;99.90;;;;;;5051459;28;20107;-65
2021/06/25 11:55:01;;;;;;;3.75;2.08;;;23.20;99.90;;;;;;5051456;28;20041;-66
2021/06/25 11:57:33;;;;;;;5.65;2.53;;;23.30;99.90;;;;;;5050876;28;20080;-68
2021/06/25 12:00:04;;;;;;;4.10;1.92;;;23.70;99.90;;;;;;5051400;28;20065;-68
2021/06/25 12:02:46;;;;;;;3.20;1.63;;;23.60;99.90;;;;;;5035452;28;20466;-68
2021/06/25 12:05:18;;;;;;;3.83;2.05;;;23.80;99.90;;;;;;5049493;28;20575;-67
2021/06/25 12:08:06;;;;;;;3.63;2.13;;;24.30;99.90;;;;;;5051237;28;20076;-67
2021/06/25 12:10:53;;;;;;;3.80;2.00;;;24.90;99.90;;;;;;5015869;28;20063;-66
2021/06/25 12:13:22;;;;;;;4.65;2.00;;;24.90;99.90;;;;;;5051587;28;20044;-67
2021/06/25 12:15:50;;;;;;;3.67;2.30;;;24.80;99.90;;;;;;5052837;28;20496;-66
2021/06/25 12:18:28;;;;;;;3.45;2.17;;;24.60;99.90;;;;;;5050910;28;20072;-67
2021/06/25 12:21:03;;;;;;;5.15;2.53;;;24.10;99.90;;;;;;5051615;28;20045;-66
2021/06/25 12:23:30;;;;;;;3.90;2.50;;;23.40;99.90;;;;;;5050274;28;20393;-66
2021/06/25 12:25:58;;;;;;;4.55;3.15;;;23.00;99.90;;;;;;5048395;28;20036;-66
2021/06/25 12:28:28;;;;;;;3.95;2.78;;;22.80;99.90;;;;;;5065270;28;20045;-67
2021/06/25 12:31:02;;;;;;;4.60;3.13;;;22.60;99.90;;;;;;5036713;28;20041;-67
2021/06/25 12:33:36;;;;;;;3.83;2.80;;;22.50;99.90;;;;;;5050760;28;20052;-66
2021/06/25 12:36:04;;;;;;;4.18;2.58;;;22.50;99.90;;;;;;5049225;28;20083;-67
2021/06/25 12:38:32;;;;;;;4.55;2.78;;;22.50;99.90;;;;;;5052059;28;20049;-67
2021/06/25 12:41:02;;;;;;;4.55;2.80;;;22.70;99.90;;;;;;5049124;28;20124;-67
2021/06/25 12:43:37;;;;;;;4.20;2.45;;;23.00;99.90;;;;;;5050459;28;20558;-67
2021/06/25 12:46:12;;;;;;;3.38;2.20;;;23.70;99.90;;;;;;5050194;28;20527;-71
2021/06/25 12:48:48;;;;;;;4.00;2.60;;;24.40;99.90;;;;;;5049354;28;20045;-71
2021/06/25 12:51:19;;;;;;;4.30;2.38;;;24.50;99.90;;;;;;5066040;28;20044;-71
2021/06/25 12:53:50;;;;;;;4.50;2.67;;;24.90;99.90;;;;;;5048847;28;20055;-70
2021/06/25 12:56:22;;;;;;;4.53;2.67;;;24.80;99.90;;;;;;5048674;28;20311;-70
2021/06/25 12:59:01;;;;;;;6.72;2.95;;;24.50;99.90;;;;;;5046611;28;20076;-70
2021/06/25 13:01:38;;;;;;;5.20;2.78;;;23.90;99.90;;;;;;5065632;28;20533;-70
2021/06/25 13:04:29;;;;;;;4.05;2.65;;;24.10;99.90;;;;;;5047835;28;20053;-71
2021/06/25 13:07:04;;;;;;;4.35;3.00;;;24.00;99.90;;;;;;5043802;28;20052;-70
2021/06/25 13:09:37;;;;;;;3.35;2.05;;;24.10;99.90;;;;;;5063892;28;20064;-71